createdAt,value
2019-03-16T00:00:31.821Z,5.95
2019-03-16T00:03:02.453Z,5.94
2019-03-16T00:05:34.044Z,5.96
2019-03-16T00:08:05.979Z,5.97
2019-03-16T00:10:36.540Z,5.96
2019-03-16T00:13:08.392Z,5.98
2019-03-16T00:15:38.774Z,5.95
2019-03-16T00:18:08.999Z,5.97
2019-03-16T00:20:43.465Z,5.97
2019-03-16T00:23:13.875Z,6.00
2019-03-16T00:25:44.832Z,6.00
2019-03-16T00:28:15.462Z,6.02
2019-03-16T00:30:46.842Z,6.01
2019-03-16T00:33:17.369Z,6.02
2019-03-16T00:35:48.461Z,6.02
2019-03-16T00:38:23.349Z,6.03
2019-03-16T00:40:52.805Z,6.05
2019-03-16T00:43:23.142Z,6.09
2019-03-16T00:45:54.991Z,6.15
2019-03-16T00:48:25.701Z,6.17
2019-03-16T00:50:55.976Z,6.21
2019-03-16T00:53:27.303Z,6.23
2019-03-16T00:55:57.556Z,6.24
2019-03-16T00:58:28.470Z,6.23
2019-03-16T01:00:58.798Z,6.25
2019-03-16T01:03:29.190Z,6.27
2019-03-16T01:05:59.554Z,6.30
2019-03-16T01:08:30.371Z,6.33
2019-03-16T01:11:00.721Z,6.36
2019-03-16T01:13:31.022Z,6.34
2019-03-16T01:16:01.896Z,6.39
2019-03-16T01:18:32.179Z,6.38
2019-03-16T01:21:02.911Z,6.36
2019-03-16T01:23:33.423Z,6.33
2019-03-16T01:26:03.611Z,6.30
2019-03-16T01:28:34.006Z,6.31
2019-03-16T01:31:04.422Z,6.29
2019-03-16T01:33:34.969Z,6.28
2019-03-16T01:36:05.934Z,6.25
2019-03-16T01:38:36.772Z,6.26
2019-03-16T01:41:07.066Z,6.27
2019-03-16T01:43:38.405Z,6.27
2019-03-16T01:46:08.874Z,6.27
2019-03-16T01:48:39.552Z,6.27
2019-03-16T01:51:10.139Z,6.26
2019-03-16T01:53:40.428Z,6.26
2019-03-16T01:56:10.658Z,6.29
2019-03-16T01:58:41.472Z,6.30
2019-03-16T02:01:12.130Z,6.28
2019-03-16T02:03:42.522Z,6.27
2019-03-16T02:06:12.947Z,6.28
2019-03-16T02:08:43.474Z,6.31
2019-03-16T02:11:14.132Z,6.31
2019-03-16T02:13:45.184Z,6.31
2019-03-16T02:16:15.796Z,6.29
2019-03-16T02:18:46.902Z,6.27
2019-03-16T02:21:17.328Z,6.27
2019-03-16T02:23:48.204Z,6.28
2019-03-16T02:26:18.469Z,6.31
2019-03-16T02:28:50.673Z,6.34
2019-03-16T02:31:21.028Z,6.33
2019-03-16T02:33:51.563Z,6.31
2019-03-16T02:36:22.196Z,6.31
2019-03-16T02:38:52.853Z,6.28
2019-03-16T02:41:23.508Z,6.26
2019-03-16T02:43:54.173Z,6.21
2019-03-16T02:46:24.889Z,6.19
2019-03-16T02:48:55.454Z,6.18
2019-03-16T02:51:25.699Z,6.20
2019-03-16T02:53:56.543Z,6.20
2019-03-16T02:56:27.042Z,6.20
2019-03-16T02:58:57.574Z,6.18
2019-03-16T03:01:28.755Z,6.17
2019-03-16T03:03:59.654Z,6.15
2019-03-16T03:06:30.447Z,6.16
2019-03-16T03:09:01.254Z,6.13
2019-03-16T03:11:32.511Z,6.11
2019-03-16T03:14:02.767Z,6.11
2019-03-16T03:16:33.074Z,6.11
2019-03-16T03:19:03.700Z,6.10
2019-03-16T03:21:34.635Z,6.07
2019-03-16T03:24:05.414Z,6.08
2019-03-16T03:26:35.777Z,6.07
2019-03-16T03:29:07.307Z,6.05
2019-03-16T03:31:38.178Z,6.05
2019-03-16T03:34:08.558Z,6.03
2019-03-16T03:36:39.321Z,6.02
2019-03-16T03:39:10.036Z,6.02
2019-03-16T03:41:40.774Z,5.99
2019-03-16T03:44:11.790Z,5.99
2019-03-16T03:46:42.543Z,5.98
2019-03-16T03:49:14.145Z,5.99
2019-03-16T03:51:44.825Z,5.99
2019-03-16T03:54:15.434Z,5.99
2019-03-16T03:56:45.787Z,5.96
2019-03-16T03:59:16.782Z,5.96
2019-03-16T04:01:47.447Z,5.97
2019-03-16T04:04:17.888Z,5.95
2019-03-16T04:06:48.526Z,5.93
2019-03-16T04:09:20.021Z,5.94
2019-03-16T04:11:50.432Z,5.94
2019-03-16T04:14:20.885Z,5.93
2019-03-16T04:16:52.163Z,5.94
2019-03-16T04:19:22.839Z,5.99
2019-03-16T04:21:53.779Z,5.99
2019-03-16T04:24:24.397Z,6.00
2019-03-16T04:26:54.718Z,6.03
2019-03-16T04:29:25.658Z,6.03
2019-03-16T04:31:55.984Z,6.05
2019-03-16T04:34:29.572Z,6.05
2019-03-16T04:36:58.850Z,6.06
2019-03-16T04:39:29.584Z,6.07
2019-03-16T04:42:00.319Z,6.07
2019-03-16T04:44:31.012Z,6.06
2019-03-16T04:47:01.603Z,6.07
2019-03-16T04:49:32.425Z,6.07
2019-03-16T04:52:02.851Z,6.10
2019-03-16T04:54:33.862Z,6.12
2019-03-16T04:57:04.113Z,6.14
2019-03-16T04:59:36.080Z,6.13
2019-03-16T05:02:06.631Z,6.14
2019-03-16T05:04:42.519Z,6.13
2019-03-16T05:07:09.211Z,6.12
2019-03-16T05:09:39.789Z,6.13
2019-03-16T05:12:10.076Z,6.10
2019-03-16T05:14:40.671Z,6.10
2019-03-16T05:17:10.918Z,6.08
2019-03-16T05:19:43.695Z,6.10
2019-03-16T05:22:14.366Z,6.13
2019-03-16T05:24:44.859Z,6.13
2019-03-16T05:27:15.238Z,6.16
2019-03-16T05:29:46.523Z,6.16
2019-03-16T05:32:17.238Z,6.16
2019-03-16T05:34:56.562Z,6.15
2019-03-16T05:37:19.922Z,6.14
2019-03-16T05:39:50.406Z,6.10
2019-03-16T05:42:21.138Z,6.11
2019-03-16T05:44:53.385Z,6.10
2019-03-16T05:47:23.645Z,6.10
2019-03-16T05:49:53.912Z,6.07
2019-03-16T05:52:25.248Z,6.06
2019-03-16T05:54:55.498Z,6.06
2019-03-16T05:57:25.830Z,6.06
2019-03-16T05:59:56.220Z,6.08
2019-03-16T06:02:26.484Z,6.07
2019-03-16T06:05:09.957Z,6.08
2019-03-16T06:07:29.607Z,6.08
2019-03-16T06:10:00.555Z,6.10
2019-03-16T06:12:31.076Z,6.14
2019-03-16T06:15:01.383Z,6.16
2019-03-16T06:17:31.933Z,6.16
2019-03-16T06:20:02.268Z,6.18
2019-03-16T06:22:33.256Z,6.19
2019-03-16T06:25:03.892Z,6.21
2019-03-16T06:27:34.210Z,6.24
2019-03-16T06:30:04.923Z,6.25
2019-03-16T06:32:35.592Z,6.25
2019-03-16T06:35:05.987Z,6.24
2019-03-16T06:37:36.259Z,6.25
2019-03-16T06:40:07.575Z,6.26
2019-03-16T06:42:38.104Z,6.28
2019-03-16T06:45:09.197Z,6.27
2019-03-16T06:47:39.682Z,6.28
2019-03-16T06:50:11.076Z,6.29
2019-03-16T06:52:42.352Z,6.32
2019-03-16T06:55:13.613Z,6.37
2019-03-16T06:57:44.055Z,6.42
2019-03-16T07:00:15.071Z,6.47
2019-03-16T07:02:45.344Z,6.53
2019-03-16T07:05:15.746Z,6.62
2019-03-16T07:07:46.860Z,6.71
2019-03-16T07:10:17.115Z,6.76
2019-03-16T07:12:50.520Z,6.81
2019-03-16T07:15:22.764Z,6.87
2019-03-16T07:17:55.265Z,6.90
2019-03-16T07:20:27.364Z,6.94
2019-03-16T07:22:59.086Z,7.00
2019-03-16T07:25:31.131Z,7.03
2019-03-16T07:28:02.948Z,7.09
2019-03-16T07:30:37.208Z,7.12
2019-03-16T07:33:10.957Z,7.13
2019-03-16T07:35:44.252Z,7.09
2019-03-16T07:38:17.235Z,7.09
2019-03-16T07:40:50.209Z,7.13
2019-03-16T07:43:21.950Z,7.15
2019-03-16T07:45:54.902Z,7.18
2019-03-16T07:48:28.896Z,7.22
2019-03-16T07:51:01.889Z,7.27
2019-03-16T07:53:35.338Z,7.31
2019-03-16T07:56:07.277Z,7.38
2019-03-16T07:58:39.741Z,7.39
2019-03-16T08:01:19.337Z,7.44
2019-03-16T08:03:53.617Z,7.51
2019-03-16T08:06:25.554Z,7.60
2019-03-16T08:08:58.066Z,7.62
2019-03-16T08:11:30.231Z,7.64
2019-03-16T08:14:02.334Z,7.71
2019-03-16T08:16:35.212Z,7.79
2019-03-16T08:19:07.455Z,7.92
2019-03-16T08:21:39.632Z,7.91
2019-03-16T08:24:13.766Z,7.92
2019-03-16T08:26:46.325Z,7.86
2019-03-16T08:29:19.493Z,7.90
2019-03-16T08:31:51.685Z,7.93
2019-03-16T08:34:23.066Z,7.93
2019-03-16T08:36:55.620Z,8.00
2019-03-16T08:39:28.392Z,8.08
2019-03-16T08:42:00.233Z,8.18
2019-03-16T08:44:32.273Z,8.25
2019-03-16T08:47:04.101Z,8.44
2019-03-16T08:49:36.121Z,8.52
2019-03-16T08:52:07.964Z,8.48
2019-03-16T08:54:40.600Z,8.50
2019-03-16T08:57:15.895Z,8.58
2019-03-16T08:59:46.262Z,8.60
2019-03-16T09:02:16.813Z,8.61
2019-03-16T09:04:47.023Z,8.69
2019-03-16T09:07:17.293Z,8.73
2019-03-16T09:09:48.462Z,8.64
2019-03-16T09:12:18.764Z,8.57
2019-03-16T09:14:49.134Z,8.58
2019-03-16T09:17:19.639Z,8.76
2019-03-16T09:19:49.917Z,8.87
2019-03-16T09:22:20.087Z,8.98
2019-03-16T09:24:50.329Z,8.98
2019-03-16T09:27:30.584Z,8.96
2019-03-16T09:29:53.499Z,8.81
2019-03-16T09:32:24.393Z,8.70
2019-03-16T09:34:54.817Z,8.71
2019-03-16T09:37:25.082Z,8.66
2019-03-16T09:39:55.651Z,8.71
2019-03-16T09:42:26.629Z,8.63
2019-03-16T09:44:57.058Z,8.70
2019-03-16T09:47:27.292Z,8.93
2019-03-16T09:49:57.560Z,9.16
2019-03-16T09:52:28.154Z,9.37
2019-03-16T09:54:58.796Z,9.29
2019-03-16T09:57:29.048Z,9.33
2019-03-16T09:59:59.174Z,9.29
2019-03-16T10:02:29.564Z,9.23
2019-03-16T10:05:00.367Z,9.29
2019-03-16T10:07:30.728Z,9.46
2019-03-16T10:10:01.881Z,9.68
2019-03-16T10:12:32.161Z,9.77
2019-03-16T10:15:02.671Z,9.91
2019-03-16T10:17:33.532Z,9.95
2019-03-16T10:20:03.845Z,10.11
2019-03-16T10:22:34.014Z,10.15
2019-03-16T10:25:04.250Z,10.07
2019-03-16T10:27:34.822Z,9.99
2019-03-16T10:30:06.025Z,10.00
2019-03-16T10:32:37.441Z,9.91
2019-03-16T10:35:07.819Z,9.54
2019-03-16T10:37:38.203Z,8.93
2019-03-16T10:40:08.544Z,8.51
2019-03-16T10:42:39.114Z,8.38
2019-03-16T10:45:09.780Z,8.14
2019-03-16T10:47:41.334Z,7.83
2019-03-16T10:50:11.574Z,7.76
2019-03-16T10:52:42.338Z,7.64
2019-03-16T10:55:12.913Z,7.47
2019-03-16T10:57:43.493Z,7.29
2019-03-16T11:00:14.201Z,7.13
2019-03-16T11:02:45.002Z,6.94
2019-03-16T11:05:15.212Z,6.89
2019-03-16T11:07:45.689Z,6.82
2019-03-16T11:10:16.011Z,6.72
2019-03-16T11:12:47.126Z,6.75
2019-03-16T11:15:17.398Z,6.75
2019-03-16T11:17:47.932Z,6.76
2019-03-16T11:20:18.273Z,6.80
2019-03-16T11:22:49.367Z,6.85
2019-03-16T11:25:20.183Z,6.92
2019-03-16T11:27:50.983Z,6.92
2019-03-16T11:30:22.535Z,6.90
2019-03-16T11:32:52.859Z,6.90
2019-03-16T11:35:23.422Z,6.93
2019-03-16T11:37:54.663Z,7.01
2019-03-16T11:40:24.955Z,7.01
2019-03-16T11:42:55.689Z,7.09
2019-03-16T11:45:26.304Z,7.21
2019-03-16T11:47:56.833Z,7.30
2019-03-16T11:50:27.434Z,7.35
2019-03-16T11:52:58.775Z,7.37
2019-03-16T11:55:29.223Z,7.56
2019-03-16T11:57:59.431Z,7.66
2019-03-16T12:00:29.640Z,7.75
2019-03-16T12:03:04.410Z,7.80
2019-03-16T12:05:34.624Z,7.89
2019-03-16T12:08:05.978Z,7.97
2019-03-16T12:10:36.438Z,7.99
2019-03-16T12:13:16.656Z,8.10
2019-03-16T12:15:38.861Z,8.27
2019-03-16T12:18:09.470Z,8.36
2019-03-16T12:20:40.346Z,8.32
2019-03-16T12:23:10.917Z,8.20
2019-03-16T12:25:42.196Z,8.17
2019-03-16T12:28:12.419Z,8.11
2019-03-16T12:30:42.689Z,7.99
2019-03-16T12:33:13.019Z,7.87
2019-03-16T12:35:43.721Z,7.84
2019-03-16T12:38:14.082Z,7.81
2019-03-16T12:40:44.255Z,7.91
2019-03-16T12:43:15.031Z,7.84
2019-03-16T12:45:45.767Z,7.93
2019-03-16T12:48:16.259Z,7.81
2019-03-16T12:50:46.751Z,7.69
2019-03-16T12:53:17.032Z,7.66
2019-03-16T12:55:50.702Z,7.70
2019-03-16T12:58:22.021Z,7.67
2019-03-16T13:00:52.268Z,7.61
2019-03-16T13:03:22.672Z,7.49
2019-03-16T13:05:54.308Z,7.34
2019-03-16T13:08:24.619Z,7.14
2019-03-16T13:10:54.868Z,7.02
2019-03-16T13:13:25.299Z,6.87
2019-03-16T13:15:55.778Z,6.82
2019-03-16T13:18:26.174Z,6.81
2019-03-16T13:20:57.087Z,6.74
2019-03-16T13:23:28.349Z,6.57
2019-03-16T13:25:58.669Z,6.50
2019-03-16T13:28:29.382Z,6.39
2019-03-16T13:31:01.039Z,6.35
2019-03-16T13:33:31.922Z,6.31
2019-03-16T13:36:02.424Z,6.21
2019-03-16T13:38:33.266Z,6.07
2019-03-16T13:41:03.809Z,5.97
2019-03-16T13:43:34.135Z,5.91
2019-03-16T13:46:05.114Z,5.79
2019-03-16T13:48:35.867Z,5.78
2019-03-16T13:51:06.715Z,5.78
2019-03-16T13:53:37.179Z,5.79
2019-03-16T13:56:08.471Z,5.74
2019-03-16T13:58:40.774Z,5.62
2019-03-16T14:01:11.759Z,5.59
2019-03-16T14:03:46.189Z,5.57
2019-03-16T14:06:17.267Z,5.51
2019-03-16T14:08:47.502Z,5.44
2019-03-16T14:11:19.230Z,5.35
2019-03-16T14:13:49.541Z,5.41
2019-03-16T14:16:20.923Z,5.38
2019-03-16T14:18:51.440Z,5.30
2019-03-16T14:21:22.043Z,5.34
2019-03-16T14:23:56.322Z,5.35
2019-03-16T14:26:28.297Z,5.38
2019-03-16T14:28:58.639Z,5.42
2019-03-16T14:31:29.425Z,5.43
2019-03-16T14:34:00.965Z,5.46
2019-03-16T14:36:31.567Z,5.55
2019-03-16T14:39:02.572Z,5.53
2019-03-16T14:41:33.518Z,5.51
2019-03-16T14:44:04.465Z,5.51
2019-03-16T14:46:34.949Z,5.50
2019-03-16T14:49:06.446Z,5.45
2019-03-16T14:51:37.992Z,5.47
2019-03-16T14:54:08.629Z,5.51
2019-03-16T14:56:40.180Z,5.53
2019-03-16T14:59:11.675Z,5.48
2019-03-16T15:01:47.026Z,5.41
2019-03-16T15:04:17.668Z,5.42
2019-03-16T15:06:47.847Z,5.40
2019-03-16T15:09:22.300Z,5.42
2019-03-16T15:11:52.828Z,5.43
2019-03-16T15:14:23.154Z,5.45
2019-03-16T15:16:53.627Z,5.43
2019-03-16T15:19:24.011Z,5.44
2019-03-16T15:21:55.545Z,5.49
2019-03-16T15:24:25.857Z,5.54
2019-03-16T15:26:56.387Z,5.48
2019-03-16T15:29:26.997Z,5.52
2019-03-16T15:31:57.867Z,5.55
2019-03-16T15:34:28.461Z,5.57
2019-03-16T15:36:59.423Z,5.58
2019-03-16T15:39:30.098Z,5.54
2019-03-16T15:42:00.659Z,5.60
2019-03-16T15:44:30.927Z,5.54
2019-03-16T15:47:02.185Z,5.53
2019-03-16T15:49:33.433Z,5.55
2019-03-16T15:52:04.310Z,5.58
2019-03-16T15:54:34.652Z,5.61
2019-03-16T15:57:05.462Z,5.71
2019-03-16T15:59:36.426Z,5.71
2019-03-16T16:02:08.808Z,5.78
2019-03-16T16:04:39.133Z,5.80
2019-03-16T16:07:10.045Z,5.82
2019-03-16T16:09:40.820Z,5.84
2019-03-16T16:12:12.319Z,5.94
2019-03-16T16:14:42.657Z,6.01
2019-03-16T16:17:13.456Z,6.10
2019-03-16T16:19:43.808Z,6.11
2019-03-16T16:22:17.096Z,6.14
2019-03-16T16:24:47.019Z,6.15
2019-03-16T16:27:20.417Z,6.19
2019-03-16T16:29:50.865Z,6.23
2019-03-16T16:32:21.184Z,6.27
2019-03-16T16:34:51.562Z,6.38
2019-03-16T16:37:22.645Z,6.51
2019-03-16T16:39:53.506Z,6.65
2019-03-16T16:42:24.811Z,6.75
2019-03-16T16:44:55.678Z,6.80
2019-03-16T16:47:26.658Z,6.81
2019-03-16T16:49:57.839Z,6.88
2019-03-16T16:52:29.126Z,6.97
2019-03-16T16:55:00.764Z,7.08
2019-03-16T16:57:31.822Z,7.16
2019-03-16T17:00:02.625Z,7.23
2019-03-16T17:02:33.379Z,7.32
2019-03-16T17:05:03.699Z,7.40
2019-03-16T17:07:34.559Z,7.50
2019-03-16T17:10:05.997Z,7.58
2019-03-16T17:12:36.856Z,7.66
2019-03-16T17:15:08.358Z,7.80
2019-03-16T17:17:39.429Z,7.91
2019-03-16T17:20:10.568Z,8.02
2019-03-16T17:22:40.766Z,8.10
2019-03-16T17:25:11.250Z,8.22
2019-03-16T17:27:41.809Z,8.30
2019-03-16T17:30:14.430Z,8.37
2019-03-16T17:32:47.608Z,8.39
2019-03-16T17:35:17.896Z,8.44
2019-03-16T17:37:48.275Z,8.56
2019-03-16T17:40:18.622Z,8.61
2019-03-16T17:42:48.925Z,8.67
2019-03-16T17:45:19.311Z,8.68
2019-03-16T17:47:50.441Z,8.73
2019-03-16T17:50:21.385Z,8.78
2019-03-16T17:52:51.650Z,8.79
2019-03-16T17:55:22.052Z,8.82
2019-03-16T17:57:52.492Z,8.84
2019-03-16T18:00:22.813Z,8.85
2019-03-16T18:02:53.101Z,8.86
2019-03-16T18:05:24.087Z,8.88
2019-03-16T18:07:54.810Z,8.86
2019-03-16T18:10:25.699Z,8.88
2019-03-16T18:12:56.086Z,8.88
2019-03-16T18:15:26.630Z,8.88
2019-03-16T18:17:57.077Z,8.89
2019-03-16T18:20:27.383Z,8.89
2019-03-16T18:22:57.785Z,8.86
2019-03-16T18:25:28.891Z,8.87
2019-03-16T18:27:59.925Z,8.89
2019-03-16T18:30:30.216Z,8.85
2019-03-16T18:33:00.560Z,8.85
2019-03-16T18:35:30.849Z,8.82
2019-03-16T18:38:01.381Z,8.82
2019-03-16T18:40:31.632Z,8.80
2019-03-16T18:43:02.403Z,8.82
2019-03-16T18:45:32.671Z,8.77
2019-03-16T18:48:03.604Z,8.79
2019-03-16T18:50:33.775Z,8.84
2019-03-16T18:53:04.011Z,8.83
2019-03-16T18:55:38.656Z,8.82
2019-03-16T18:58:08.992Z,8.85
2019-03-16T19:00:39.214Z,8.82
2019-03-16T19:03:11.643Z,8.84
2019-03-16T19:05:41.932Z,8.80
2019-03-16T19:08:12.576Z,8.82
2019-03-16T19:10:43.161Z,8.86
2019-03-16T19:13:13.332Z,8.82
2019-03-16T19:15:43.840Z,8.84
2019-03-16T19:18:14.103Z,8.84
2019-03-16T19:20:44.579Z,8.85
2019-03-16T19:23:16.012Z,8.81
2019-03-16T19:25:46.528Z,8.83
2019-03-16T19:28:18.548Z,8.83
2019-03-16T19:30:48.904Z,8.80
2019-03-16T19:33:19.830Z,8.81
2019-03-16T19:35:50.230Z,8.81
2019-03-16T19:38:20.416Z,8.81
2019-03-16T19:40:51.404Z,8.82
2019-03-16T19:43:21.825Z,8.80
2019-03-16T19:45:52.390Z,8.76
2019-03-16T19:48:23.818Z,8.77
2019-03-16T19:50:54.235Z,8.74
2019-03-16T19:53:25.025Z,8.73
2019-03-16T19:55:55.406Z,8.72
2019-03-16T19:58:26.209Z,8.68
2019-03-16T20:00:56.726Z,8.70
2019-03-16T20:03:28.321Z,8.69
2019-03-16T20:06:00.433Z,8.62
2019-03-16T20:08:32.342Z,8.65
2019-03-16T20:11:06.873Z,8.59
2019-03-16T20:13:35.418Z,8.58
2019-03-16T20:16:06.127Z,8.58
2019-03-16T20:18:36.513Z,8.56
2019-03-16T20:21:07.006Z,8.58
2019-03-16T20:23:37.383Z,8.60
2019-03-16T20:26:08.327Z,8.57
2019-03-16T20:28:39.209Z,8.53
2019-03-16T20:31:09.564Z,8.57
2019-03-16T20:33:40.032Z,8.57
2019-03-16T20:36:10.542Z,8.57
2019-03-16T20:38:41.296Z,8.57
2019-03-16T20:41:11.905Z,8.53
2019-03-16T20:43:42.265Z,8.54
2019-03-16T20:46:12.991Z,8.55
2019-03-16T20:48:44.142Z,8.52
2019-03-16T20:51:15.212Z,8.50
2019-03-16T20:53:45.824Z,8.49
2019-03-16T20:56:16.187Z,8.49
2019-03-16T20:58:47.496Z,8.49
2019-03-16T21:01:18.296Z,8.51
2019-03-16T21:03:48.678Z,8.53
2019-03-16T21:06:18.966Z,8.55
2019-03-16T21:09:02.257Z,8.56
2019-03-16T21:11:21.867Z,8.58
2019-03-16T21:13:56.445Z,8.63
2019-03-16T21:16:27.256Z,8.65
2019-03-16T21:18:57.576Z,8.68
2019-03-16T21:21:29.472Z,8.72
2019-03-16T21:24:01.738Z,8.79
2019-03-16T21:26:32.398Z,8.84
2019-03-16T21:29:02.884Z,8.89
2019-03-16T21:31:35.338Z,8.95
2019-03-16T21:34:06.583Z,8.99
2019-03-16T21:36:41.681Z,9.02
2019-03-16T21:39:10.098Z,9.07
2019-03-16T21:41:40.332Z,9.12
2019-03-16T21:44:10.661Z,9.17
2019-03-16T21:46:43.745Z,9.19
2019-03-16T21:49:13.435Z,9.23
2019-03-16T21:51:43.825Z,9.31
2019-03-16T21:54:14.212Z,9.34
2019-03-16T21:56:44.739Z,9.36
2019-03-16T21:59:16.241Z,9.39
2019-03-16T22:01:46.612Z,9.42
2019-03-16T22:04:17.029Z,9.44
2019-03-16T22:06:47.658Z,9.46
2019-03-16T22:09:18.423Z,9.50
2019-03-16T22:11:49.092Z,9.53
2019-03-16T22:14:19.579Z,9.55
2019-03-16T22:16:50.845Z,9.59
2019-03-16T22:19:21.733Z,9.61
2019-03-16T22:21:52.056Z,9.63
2019-03-16T22:24:22.529Z,9.68
2019-03-16T22:26:53.023Z,9.70
2019-03-16T22:29:25.763Z,9.70
2019-03-16T22:31:56.486Z,9.72
2019-03-16T22:34:26.719Z,9.76
2019-03-16T22:36:57.035Z,9.76
2019-03-16T22:39:27.858Z,9.80
2019-03-16T22:41:58.429Z,9.83
2019-03-16T22:44:29.145Z,9.88
2019-03-16T22:46:59.399Z,9.91
2019-03-16T22:49:30.117Z,9.95
2019-03-16T22:52:06.111Z,9.99
2019-03-16T22:54:36.735Z,10.04
2019-03-16T22:57:07.560Z,10.03
2019-03-16T22:59:38.048Z,10.05
2019-03-16T23:02:10.342Z,10.09
2019-03-16T23:04:41.756Z,10.09
2019-03-16T23:07:12.911Z,10.09
2019-03-16T23:09:43.341Z,10.14
2019-03-16T23:12:17.759Z,10.13
2019-03-16T23:14:50.384Z,10.17
2019-03-16T23:17:21.355Z,10.17
2019-03-16T23:19:53.238Z,10.20
2019-03-16T23:22:24.464Z,10.19
2019-03-16T23:24:55.186Z,10.20
2019-03-16T23:27:26.028Z,10.19
2019-03-16T23:29:56.971Z,10.23
2019-03-16T23:32:27.221Z,10.23
2019-03-16T23:34:57.580Z,10.22
2019-03-16T23:37:28.672Z,10.28
2019-03-16T23:39:59.097Z,10.29
2019-03-16T23:42:30.686Z,10.28
2019-03-16T23:45:01.317Z,10.23
2019-03-16T23:47:32.149Z,10.24
2019-03-16T23:50:02.601Z,10.22
2019-03-16T23:52:33.456Z,10.21
2019-03-16T23:55:05.133Z,10.11
2019-03-16T23:57:36.115Z,10.17
